Time;durP1;ratioP1;P1;durP2;ratioP2;P2;SDS_P1;SDS_P2;PMS_P1;PMS_P2;Temp;Humidity;BMP_temperature;BMP_pressure;BME280_temperature;BME280_humidity;BME280_pressure;Samples;Min_cycle;Max_cycle;Signal;HPM_P1;HPM_P2
2022/11/26 00:00:42;;;;;;;;;;;7.30;99.90;;;;;;5030376;28;994;-89
2022/11/26 00:03:10;;;;;;;;;;;7.20;99.90;;;;;;5030594;28;1049;-86
2022/11/26 00:05:38;;;;;;;;;;;7.30;99.90;;;;;;5036601;28;2003;-86
2022/11/26 00:08:12;;;;;;;;;;;7.20;99.90;;;;;;5022906;28;1512;-87
2022/11/26 00:10:42;;;;;;;;;;;7.20;99.90;;;;;;5031956;28;1709;-88
2022/11/26 00:13:14;;;;;;;;;;;7.30;99.90;;;;;;5025345;28;1026;-88
2022/11/26 00:15:41;;;;;;;;;;;7.10;99.90;;;;;;5020069;28;1497;-89
2022/11/26 00:18:13;;;;;;;;;;;7.00;99.90;;;;;;5019533;28;1521;-87
2022/11/26 00:20:41;;;;;;;;;;;7.10;99.90;;;;;;5020410;28;1002;-90
2022/11/26 00:23:15;;;;;;;;;;;7.00;99.90;;;;;;5021166;28;1513;-88
2022/11/26 00:25:45;;;;;;;;;;;6.90;99.90;;;;;;5025168;28;1910;-86
2022/11/26 00:28:22;;;;;;;;;;;7.10;99.90;;;;;;5025710;28;1320;-89
2022/11/26 00:30:54;;;;;;;;;;;7.00;99.90;;;;;;5031608;28;1524;-87
2022/11/26 00:33:22;;;;;;;;;;;7.00;99.90;;;;;;5019769;28;1508;-88
2022/11/26 00:35:54;;;;;;;;;;;7.10;99.90;;;;;;5031459;28;1917;-86
2022/11/26 00:38:22;;;;;;;;;;;7.10;99.90;;;;;;5035933;28;1528;-88
2022/11/26 00:40:51;;;;;;;;;;;7.10;99.90;;;;;;5028871;28;1248;-87
2022/11/26 00:43:19;;;;;;;;;;;7.10;99.90;;;;;;5029928;28;993;-88
2022/11/26 00:45:49;;;;;;;;;;;7.00;99.90;;;;;;5034097;28;1987;-87
2022/11/26 00:48:18;;;;;;;;;;;6.90;99.90;;;;;;5044226;28;1662;-88
2022/11/26 00:50:47;;;;;;;;;;;6.90;99.90;;;;;;5030817;28;1691;-90
2022/11/26 00:53:17;;;;;;;;;;;6.80;99.90;;;;;;5032460;28;1569;-87
2022/11/26 00:55:46;;;;;;;;;;;7.00;99.90;;;;;;5019272;28;1013;-87
2022/11/26 00:58:20;;;;;;;;;;;6.90;99.90;;;;;;5018513;28;1288;-85
2022/11/26 01:00:48;;;;;;;;;;;6.80;99.90;;;;;;5018158;28;1388;-87
2022/11/26 01:03:16;;;;;;;;;;;6.80;99.90;;;;;;5018648;28;1725;-89
2022/11/26 01:05:44;;;;;;;;;;;6.90;99.90;;;;;;5018757;28;1922;-87
2022/11/26 01:08:19;;;;;;;;;;;6.90;99.90;;;;;;5020281;28;1658;-86
2022/11/26 01:10:47;;;;;;;;;;;6.70;99.90;;;;;;5025117;28;1556;-89
2022/11/26 01:13:15;;;;;;;;;;;6.70;99.90;;;;;;5022355;28;982;-88
2022/11/26 01:15:44;;;;;;;;;;;6.60;99.90;;;;;;5026718;28;1006;-88
2022/11/26 01:18:13;;;;;;;;;;;6.60;99.90;;;;;;5022772;28;1297;-89
2022/11/26 01:20:41;;;;;;;;;;;6.50;99.90;;;;;;5027376;28;1549;-88
2022/11/26 01:23:10;;;;;;;;;;;6.50;99.90;;;;;;5031488;28;1330;-87
2022/11/26 01:25:37;;;;;;;;;;;6.40;99.90;;;;;;5033978;28;1913;-88
2022/11/26 01:28:06;;;;;;;;;;;6.50;99.90;;;;;;5031811;28;1292;-88
2022/11/26 01:30:33;;;;;;;;;;;6.50;99.90;;;;;;5031873;28;1587;-89
2022/11/26 01:33:02;;;;;;;;;;;6.60;99.90;;;;;;5026263;28;1549;-88
2022/11/26 01:35:30;;;;;;;;;;;6.50;99.90;;;;;;5029283;28;994;-87
2022/11/26 01:37:58;;;;;;;;;;;6.50;99.90;;;;;;5032505;28;1284;-88
2022/11/26 01:40:31;;;;;;;;;;;6.40;99.90;;;;;;5029969;28;1038;-87
2022/11/26 01:42:59;;;;;;;;;;;6.40;99.90;;;;;;5035312;28;1504;-88
2022/11/26 01:45:27;;;;;;;;;;;6.30;99.90;;;;;;5035235;28;1910;-89
2022/11/26 01:47:55;;;;;;;;;;;6.30;99.90;;;;;;5025299;28;1308;-87
2022/11/26 01:50:42;;;;;;;;;;;6.30;99.90;;;;;;5029266;28;1065;-88
2022/11/26 01:53:12;;;;;;;;;;;6.20;99.90;;;;;;5049144;28;1244;-89
2022/11/26 01:55:42;;;;;;;;;;;6.30;99.90;;;;;;5043874;28;1510;-91
2022/11/26 01:58:11;;;;;;;;;;;6.20;99.90;;;;;;5021869;28;1272;-89
2022/11/26 02:00:39;;;;;;;;;;;6.10;99.90;;;;;;5030030;28;1046;-88
2022/11/26 02:03:07;;;;;;;;;;;6.00;99.90;;;;;;5017095;28;1325;-88
2022/11/26 02:05:38;;;;;;;;;;;6.00;99.90;;;;;;5016952;28;1910;-88
2022/11/26 02:08:06;;;;;;;;;;;6.00;99.90;;;;;;5016450;28;1583;-88
2022/11/26 02:10:35;;;;;;;;;;;6.00;99.90;;;;;;5019261;28;1048;-87
2022/11/26 02:18:32;;;;;;;;;;;5.90;99.90;;;;;;5054647;23;1654;-87
2022/11/26 02:21:03;;;;;;;;;;;5.80;99.90;;;;;;5002594;28;1540;-86
2022/11/26 02:23:38;;;;;;;;;;;5.80;99.90;;;;;;5004799;28;1726;-86
2022/11/26 02:26:17;;;;;;;;;;;5.80;99.90;;;;;;5008554;28;1969;-88
2022/11/26 02:28:58;;;;;;;;;;;5.80;99.90;;;;;;5022148;28;1499;-89
2022/11/26 02:31:29;;;;;;;;;;;5.80;99.90;;;;;;5008086;28;1005;-89
2022/11/26 02:34:03;;;;;;;;;;;5.80;99.90;;;;;;5010541;28;974;-88
2022/11/26 02:36:33;;;;;;;;;;;5.80;99.90;;;;;;5011807;28;1016;-89
2022/11/26 02:39:10;;;;;;;;;;;5.90;99.90;;;;;;5004787;28;1743;-88
2022/11/26 02:41:41;;;;;;;;;;;5.90;99.90;;;;;;5007147;28;973;-87
2022/11/26 02:44:09;;;;;;;;;;;5.90;99.90;;;;;;5016808;28;1561;-87
2022/11/26 02:46:39;;;;;;;;;;;5.90;99.90;;;;;;5021895;28;1907;-89
2022/11/26 02:49:08;;;;;;;;;;;6.00;99.90;;;;;;5014979;28;1651;-87
2022/11/26 02:51:37;;;;;;;;;;;6.00;99.90;;;;;;5019925;28;1057;-89
2022/11/26 02:54:05;;;;;;;;;;;6.00;99.90;;;;;;5019330;28;1679;-90
2022/11/26 02:56:33;;;;;;;;;;;6.10;99.90;;;;;;5010005;28;1062;-89
2022/11/26 02:59:01;;;;;;;;;;;6.00;99.90;;;;;;5018720;28;1359;-89
2022/11/26 03:01:30;;;;;;;;;;;6.10;99.90;;;;;;5006384;28;1203;-88
2022/11/26 03:04:01;;;;;;;;;;;6.20;99.90;;;;;;5009943;28;1707;-88
2022/11/26 03:06:31;;;;;;;;;;;6.10;99.90;;;;;;5002836;28;1894;-88
2022/11/26 03:08:59;;;;;;;;;;;6.20;99.90;;;;;;5006615;28;1383;-87
2022/11/26 03:11:27;;;;;;;;;;;6.20;99.90;;;;;;5005812;28;1327;-88
2022/11/26 03:13:54;;;;;;;;;;;6.20;99.90;;;;;;5001120;28;941;-86
2022/11/26 03:16:22;;;;;;;;;;;6.20;99.90;;;;;;5001778;28;1010;-86
2022/11/26 03:18:50;;;;;;;;;;;6.50;99.90;;;;;;5007047;28;1280;-88
2022/11/26 03:21:19;;;;;;;;;;;6.20;99.90;;;;;;5019262;28;1155;-89
2022/11/26 03:23:47;;;;;;;;;;;6.20;99.90;;;;;;4998597;28;1430;-89
2022/11/26 03:26:14;;;;;;;;;;;6.20;99.90;;;;;;4998644;28;1910;-88
2022/11/26 03:28:42;;;;;;;;;;;6.30;99.90;;;;;;4998270;28;1692;-89
2022/11/26 03:31:10;;;;;;;;;;;6.20;99.90;;;;;;4998689;28;978;-90
2022/11/26 03:33:37;;;;;;;;;;;6.30;99.90;;;;;;4998090;28;1689;-88
2022/11/26 03:36:05;;;;;;;;;;;6.30;99.90;;;;;;4998746;28;1056;-89
2022/11/26 03:38:35;;;;;;;;;;;6.30;99.90;;;;;;5001361;28;1513;-90
2022/11/26 03:41:04;;;;;;;;;;;6.40;99.90;;;;;;5025961;28;1710;-90
2022/11/26 03:43:31;;;;;;;;;;;6.30;99.90;;;;;;5021933;28;1112;-88
2022/11/26 03:45:59;;;;;;;;;;;6.20;99.90;;;;;;5000837;28;1875;-87
2022/11/26 03:48:27;;;;;;;;;;;6.30;99.90;;;;;;5000100;28;1538;-88
2022/11/26 03:50:54;;;;;;;;;;;6.30;99.90;;;;;;5003868;28;998;-87
2022/11/26 03:53:22;;;;;;;;;;;6.40;99.90;;;;;;5000798;28;986;-88
2022/11/26 03:55:51;;;;;;;;;;;6.40;99.90;;;;;;4999641;28;1573;-89
2022/11/26 03:58:19;;;;;;;;;;;6.40;99.90;;;;;;5014244;28;1652;-89
2022/11/26 04:00:46;;;;;;;;;;;6.50;99.90;;;;;;5014464;28;1084;-89
2022/11/26 04:03:14;;;;;;;;;;;6.60;99.90;;;;;;5010461;28;1014;-89
2022/11/26 04:05:42;;;;;;;;;;;6.60;99.90;;;;;;5009178;28;1529;-88
2022/11/26 04:08:10;;;;;;;;;;;6.60;99.90;;;;;;5005737;28;1977;-86
2022/11/26 04:10:37;;;;;;;;;;;6.70;99.90;;;;;;5016005;28;1693;-89
2022/11/26 04:13:06;;;;;;;;;;;6.70;99.90;;;;;;5014495;28;1572;-88
2022/11/26 04:15:34;;;;;;;;;;;6.70;99.90;;;;;;5000419;28;988;-88
2022/11/26 04:18:02;;;;;;;;;;;6.80;99.90;;;;;;5001978;28;1304;-89
2022/11/26 04:20:29;;;;;;;;;;;6.70;99.90;;;;;;5000080;28;1682;-86
2022/11/26 04:22:59;;;;;;;;;;;6.70;99.90;;;;;;5001095;28;1740;-87
2022/11/26 04:25:28;;;;;;;;;;;6.70;99.90;;;;;;5015660;28;1076;-87
2022/11/26 04:27:56;;;;;;;;;;;6.70;99.90;;;;;;5009889;28;1963;-87
2022/11/26 04:30:25;;;;;;;;;;;6.70;99.90;;;;;;5001749;28;1545;-88
2022/11/26 04:32:56;;;;;;;;;;;6.70;99.90;;;;;;5000879;28;974;-88
2022/11/26 04:35:24;;;;;;;;;;;6.80;99.90;;;;;;4999752;28;1005;-87
2022/11/26 04:37:51;;;;;;;;;;;6.80;99.90;;;;;;5000636;28;1623;-88
2022/11/26 04:40:19;;;;;;;;;;;6.80;99.90;;;;;;5000918;28;1041;-87
2022/11/26 04:42:47;;;;;;;;;;;6.90;99.90;;;;;;5009430;28;1005;-88
2022/11/26 04:45:15;;;;;;;;;;;6.70;99.90;;;;;;5013224;28;1790;-88
2022/11/26 04:47:44;;;;;;;;;;;6.80;99.90;;;;;;5019745;28;1979;-90
2022/11/26 04:50:12;;;;;;;;;;;6.80;99.90;;;;;;5006492;28;1342;-89
2022/11/26 04:52:39;;;;;;;;;;;6.70;99.90;;;;;;5005936;28;1589;-89
2022/11/26 04:55:07;;;;;;;;;;;6.60;99.90;;;;;;5011053;28;1024;-90
2022/11/26 04:57:35;;;;;;;;;;;6.80;99.90;;;;;;5004523;28;1441;-89
2022/11/26 05:00:03;;;;;;;;;;;6.70;99.90;;;;;;5004709;28;1014;-89
2022/11/26 05:02:31;;;;;;;;;;;6.80;99.90;;;;;;5002741;28;1583;-89
2022/11/26 05:05:00;;;;;;;;;;;6.80;99.90;;;;;;5020401;28;1076;-91
2022/11/26 05:07:28;;;;;;;;;;;6.60;99.90;;;;;;5018021;28;1988;-90
2022/11/26 05:09:56;;;;;;;;;;;6.40;99.90;;;;;;5008149;28;1041;-88
2022/11/26 05:12:23;;;;;;;;;;;6.50;99.90;;;;;;4999301;28;1541;-88
2022/11/26 05:14:51;;;;;;;;;;;6.70;99.90;;;;;;5008091;28;1010;-87
2022/11/26 05:17:19;;;;;;;;;;;6.70;99.90;;;;;;5007105;28;1581;-89
2022/11/26 05:19:47;;;;;;;;;;;6.70;99.90;;;;;;5018318;28;1017;-88
2022/11/26 05:22:16;;;;;;;;;;;6.70;99.90;;;;;;5003461;28;927;-87
2022/11/26 05:24:43;;;;;;;;;;;6.70;99.90;;;;;;5004783;28;986;-86
2022/11/26 05:27:11;;;;;;;;;;;6.70;99.90;;;;;;5012416;28;1914;-87
2022/11/26 05:29:39;;;;;;;;;;;6.80;99.90;;;;;;5015173;28;1673;-88
2022/11/26 05:32:06;;;;;;;;;;;6.80;99.90;;;;;;5025680;28;1546;-88
2022/11/26 05:34:34;;;;;;;;;;;6.80;99.90;;;;;;5001811;28;1108;-87
2022/11/26 05:37:02;;;;;;;;;;;6.70;99.90;;;;;;5013804;28;1599;-88
2022/11/26 05:39:31;;;;;;;;;;;6.70;99.90;;;;;;5011301;28;1707;-88
2022/11/26 05:41:59;;;;;;;;;;;6.70;99.90;;;;;;5006650;28;1509;-89
2022/11/26 05:44:34;;;;;;;;;;;6.70;99.90;;;;;;4998856;28;1006;-88
2022/11/26 05:47:02;;;;;;;;;;;6.80;99.90;;;;;;5000248;28;1894;-88
2022/11/26 05:49:29;;;;;;;;;;;6.80;99.90;;;;;;5012311;28;1645;-88
2022/11/26 05:51:57;;;;;;;;;;;6.90;99.90;;;;;;5022024;28;1005;-87
2022/11/26 05:54:25;;;;;;;;;;;6.80;99.90;;;;;;5020379;28;1582;-89
2022/11/26 05:56:54;;;;;;;;;;;6.80;99.90;;;;;;5015879;28;1592;-88
2022/11/26 05:59:27;;;;;;;;;;;6.70;99.90;;;;;;5009117;28;1359;-89
2022/11/26 06:01:54;;;;;;;;;;;6.80;99.90;;;;;;5015150;28;1541;-87
2022/11/26 06:04:22;;;;;;;;;;;6.80;99.90;;;;;;5002992;28;977;-88
2022/11/26 06:06:50;;;;;;;;;;;7.00;99.90;;;;;;5007723;28;965;-87
2022/11/26 06:09:18;;;;;;;;;;;6.80;99.90;;;;;;5014143;28;1938;-89
2022/11/26 06:11:46;;;;;;;;;;;6.90;99.90;;;;;;5014524;28;1388;-88
2022/11/26 06:14:15;;;;;;;;;;;6.90;99.90;;;;;;5017496;28;1578;-88
2022/11/26 06:16:42;;;;;;;;;;;6.90;99.90;;;;;;5009688;28;1695;-89
2022/11/26 06:19:11;;;;;;;;;;;6.90;99.90;;;;;;5009057;28;1710;-89
2022/11/26 06:21:38;;;;;;;;;;;6.80;99.90;;;;;;5012199;28;1067;-88
2022/11/26 06:24:06;;;;;;;;;;;6.80;99.90;;;;;;5014444;28;1440;-88
2022/11/26 06:26:34;;;;;;;;;;;6.90;99.90;;;;;;5006122;28;1601;-88
2022/11/26 06:29:01;;;;;;;;;;;6.90;99.90;;;;;;5016655;28;1918;-88
2022/11/26 06:31:31;;;;;;;;;;;7.00;99.90;;;;;;5002503;28;1104;-90
2022/11/26 06:33:59;;;;;;;;;;;6.90;99.90;;;;;;5021655;28;1247;-88
2022/11/26 06:36:29;;;;;;;;;;;7.00;99.90;;;;;;5034162;28;1298;-88
2022/11/26 06:38:56;;;;;;;;;;;7.00;99.90;;;;;;5026171;28;1446;-88
2022/11/26 06:41:25;;;;;;;;;;;7.00;99.90;;;;;;5009872;28;1537;-88
2022/11/26 06:43:53;;;;;;;;;;;6.90;99.90;;;;;;5015379;28;1461;-89
2022/11/26 06:46:21;;;;;;;;;;;6.90;99.90;;;;;;5019252;28;1698;-88
2022/11/26 06:48:50;;;;;;;;;;;6.80;99.90;;;;;;5002335;28;1961;-89
2022/11/26 06:51:19;;;;;;;;;;;6.80;99.90;;;;;;5006509;28;997;-89
2022/11/26 06:53:47;;;;;;;;;;;6.80;99.90;;;;;;5011435;28;1696;-89
2022/11/26 06:56:15;;;;;;;;;;;6.90;99.90;;;;;;5001695;28;1609;-88
2022/11/26 06:58:46;;;;;;;;;;;6.90;99.90;;;;;;5009329;28;2011;-89
2022/11/26 07:01:14;;;;;;;;;;;6.90;99.90;;;;;;5001851;28;1076;-90
2022/11/26 07:03:42;;;;;;;;;;;6.90;99.90;;;;;;5003542;28;1084;-89
2022/11/26 07:06:17;;;;;;;;;;;6.90;99.90;;;;;;5017778;28;1033;-88
2022/11/26 07:08:46;;;;;;;;;;;6.90;99.90;;;;;;5021369;28;2009;-90
2022/11/26 07:11:14;;;;;;;;;;;7.00;99.90;;;;;;5010588;28;970;-90
2022/11/26 07:13:43;;;;;;;;;;;7.00;99.90;;;;;;5018618;28;1526;-90
2022/11/26 07:16:11;;;;;;;;;;;7.00;99.90;;;;;;5009986;28;1543;-89
2022/11/26 07:18:39;;;;;;;;;;;7.00;99.90;;;;;;5007015;28;1375;-90
2022/11/26 07:21:07;;;;;;;;;;;7.10;99.90;;;;;;5015997;28;1183;-90
2022/11/26 07:23:37;;;;;;;;;;;7.00;99.90;;;;;;5022520;28;1549;-88
2022/11/26 07:26:05;;;;;;;;;;;7.10;99.90;;;;;;5018714;28;1533;-89
2022/11/26 07:28:33;;;;;;;;;;;7.10;99.90;;;;;;5021649;28;1914;-88
2022/11/26 07:31:01;;;;;;;;;;;7.20;99.90;;;;;;5011494;28;1296;-87
2022/11/26 07:33:29;;;;;;;;;;;7.40;99.90;;;;;;5010835;28;1384;-89
2022/11/26 07:35:58;;;;;;;;;;;7.20;99.90;;;;;;5015802;28;1675;-88
2022/11/26 07:38:26;;;;;;;;;;;7.20;99.90;;;;;;5023492;28;1292;-88
2022/11/26 07:40:55;;;;;;;;;;;7.10;99.90;;;;;;5005873;28;1705;-87
2022/11/26 07:43:23;;;;;;;;;;;7.20;99.90;;;;;;5019255;28;1465;-87
2022/11/26 07:45:50;;;;;;;;;;;7.40;99.90;;;;;;5004467;28;1575;-88
2022/11/26 07:48:18;;;;;;;;;;;7.10;99.90;;;;;;5007633;28;1906;-87
2022/11/26 07:50:46;;;;;;;;;;;7.20;99.90;;;;;;5009739;28;1577;-86
2022/11/26 07:53:13;;;;;;;;;;;7.20;99.90;;;;;;5004126;28;1255;-86
2022/11/26 07:55:41;;;;;;;;;;;7.20;99.90;;;;;;5000341;28;1680;-87
2022/11/26 07:58:13;;;;;;;;;;;7.20;99.90;;;;;;5008045;28;2006;-86
2022/11/26 08:00:41;;;;;;;;;;;7.50;99.90;;;;;;5021658;28;1537;-87
2022/11/26 08:03:09;;;;;;;;;;;7.30;99.90;;;;;;5008942;28;1295;-85
2022/11/26 08:05:40;;;;;;;;;;;7.30;99.90;;;;;;5002104;28;994;-87
2022/11/26 08:08:08;;;;;;;;;;;7.40;99.90;;;;;;5007937;28;1367;-87
2022/11/26 08:10:35;;;;;;;;;;;7.40;99.90;;;;;;5013172;28;1973;-87
2022/11/26 08:13:03;;;;;;;;;;;7.50;99.90;;;;;;5007517;28;1307;-86
2022/11/26 08:15:34;;;;;;;;;;;7.40;99.90;;;;;;5019120;28;1639;-87
2022/11/26 08:18:02;;;;;;;;;;;7.40;99.90;;;;;;4997139;28;1439;-88
2022/11/26 08:20:29;;;;;;;;;;;7.40;99.90;;;;;;4996858;28;1589;-87
2022/11/26 08:22:57;;;;;;;;;;;7.40;99.90;;;;;;4998157;28;1508;-88
2022/11/26 08:25:25;;;;;;;;;;;7.40;99.90;;;;;;5013677;28;1463;-88
2022/11/26 08:27:52;;;;;;;;;;;7.40;99.90;;;;;;5011113;28;1273;-86
2022/11/26 08:30:20;;;;;;;;;;;7.40;99.90;;;;;;5012246;28;1922;-87
2022/11/26 08:32:49;;;;;;;;;;;7.40;99.90;;;;;;5006385;28;817;-87
2022/11/26 08:35:17;;;;;;;;;;;7.40;99.90;;;;;;5007339;28;1239;-88
2022/11/26 08:37:44;;;;;;;;;;;7.50;99.90;;;;;;5002963;28;2026;-88
2022/11/26 08:40:13;;;;;;;;;;;7.60;99.90;;;;;;5004042;28;1002;-86
2022/11/26 08:42:40;;;;;;;;;;;7.60;99.90;;;;;;5016286;28;1090;-87
2022/11/26 08:45:08;;;;;;;;;;;7.60;99.90;;;;;;5003647;28;2019;-87
2022/11/26 08:47:36;;;;;;;;;;;7.70;99.90;;;;;;5027204;28;1315;-86
2022/11/26 08:50:06;;;;;;;;;;;7.70;99.90;;;;;;5025651;28;1957;-87
2022/11/26 08:52:33;;;;;;;;;;;7.80;99.90;;;;;;5015592;28;1560;-86
2022/11/26 08:55:01;;;;;;;;;;;7.70;99.90;;;;;;5012507;28;1904;-87
2022/11/26 08:57:30;;;;;;;;;;;7.80;99.90;;;;;;5015601;28;1695;-89
2022/11/26 08:59:59;;;;;;;;;;;7.70;99.90;;;;;;5013163;28;1168;-87
2022/11/26 09:02:29;;;;;;;;;;;7.80;99.90;;;;;;5007565;28;986;-88
2022/11/26 09:04:56;;;;;;;;;;;8.10;99.90;;;;;;5018333;28;1664;-86
2022/11/26 09:07:25;;;;;;;;;;;7.90;99.90;;;;;;5013555;28;1632;-87
2022/11/26 09:09:53;;;;;;;;;;;7.90;99.90;;;;;;5007114;28;1871;-86
2022/11/26 09:12:21;;;;;;;;;;;8.00;99.90;;;;;;5019962;28;2176;-87
2022/11/26 09:14:49;;;;;;;;;;;8.00;99.90;;;;;;5020511;28;990;-86
2022/11/26 09:17:16;;;;;;;;;;;8.00;99.90;;;;;;5009419;28;1963;-87
2022/11/26 09:19:44;;;;;;;;;;;8.20;99.90;;;;;;5004547;28;1344;-86
2022/11/26 09:22:12;;;;;;;;;;;8.10;99.90;;;;;;5011138;28;989;-89
2022/11/26 09:24:42;;;;;;;;;;;8.20;99.90;;;;;;5010186;28;1203;-89
2022/11/26 09:27:10;;;;;;;;;;;7.90;99.90;;;;;;5006789;28;1566;-88
2022/11/26 09:29:37;;;;;;;;;;;7.90;99.90;;;;;;5014252;28;1895;-87
2022/11/26 09:32:08;;;;;;;;;;;7.90;99.90;;;;;;5007998;28;2204;-89
2022/11/26 09:34:52;;;;;;;;;;;7.90;99.90;;;;;;5011348;28;1067;-88
2022/11/26 09:37:19;;;;;;;;;;;7.80;99.90;;;;;;5011044;28;1514;-87
2022/11/26 09:39:49;;;;;;;;;;;8.00;99.90;;;;;;5010456;28;976;-87
2022/11/26 09:42:26;;;;;;;;;;;8.10;99.90;;;;;;5015587;28;1113;-86
2022/11/26 09:45:05;;;;;;;;;;;8.20;99.90;;;;;;5008598;28;1287;-86
2022/11/26 09:47:37;;;;;;;;;;;8.30;99.90;;;;;;5011105;28;1785;-84
2022/11/26 09:50:08;;;;;;;;;;;8.40;99.90;;;;;;5017987;28;1902;-89
2022/11/26 09:52:43;;;;;;;;;;;8.50;99.90;;;;;;5011760;28;1438;-85
2022/11/26 09:55:15;;;;;;;;;;;8.70;99.90;;;;;;5014117;28;1539;-85
2022/11/26 09:57:44;;;;;;;;;;;8.50;99.90;;;;;;5002540;28;1603;-87
2022/11/26 10:00:23;;;;;;;;;;;8.60;99.90;;;;;;5011256;28;1315;-86
2022/11/26 10:02:53;;;;;;;;;;;8.60;99.90;;;;;;5017979;28;1461;-89
2022/11/26 10:05:22;;;;;;;;;;;8.80;99.90;;;;;;5010402;28;1528;-87
2022/11/26 10:08:02;;;;;;;;;;;8.70;99.90;;;;;;5009298;28;1533;-89
2022/11/26 10:10:35;;;;;;;;;;;8.70;99.90;;;;;;5001951;28;1995;-87
2022/11/26 10:13:08;;;;;;;;;;;8.70;99.90;;;;;;5016099;28;1879;-90
2022/11/26 10:15:57;;;;;;;;;;;8.90;99.90;;;;;;5011217;28;1563;-87
2022/11/26 10:18:28;;;;;;;;;;;8.80;99.90;;;;;;5009372;28;1541;-88
2022/11/26 10:21:04;;;;;;;;;;;8.80;99.90;;;;;;5014284;28;1567;-87
2022/11/26 10:23:39;;;;;;;;;;;8.60;99.90;;;;;;5012447;28;1573;-88
2022/11/26 10:26:12;;;;;;;;;;;8.60;99.90;;;;;;5002651;28;752;-88
2022/11/26 10:28:53;;;;;;;;;;;8.80;99.90;;;;;;5008490;28;1326;-87
2022/11/26 10:31:21;;;;;;;;;;;8.50;99.90;;;;;;5010461;28;1875;-87
2022/11/26 10:33:54;;;;;;;;;;;8.90;99.90;;;;;;5010625;28;1514;-85
2022/11/26 10:36:24;;;;;;;;;;;8.50;99.90;;;;;;5009524;28;1525;-88
2022/11/26 10:38:52;;;;;;;;;;;8.80;99.90;;;;;;5013403;28;1340;-87
2022/11/26 10:41:21;;;;;;;;;;;8.80;99.90;;;;;;5020453;28;982;-91
2022/11/26 10:43:51;;;;;;;;;;;8.80;99.90;;;;;;5014366;28;1723;-87
2022/11/26 10:46:30;;;;;;;;;;;8.80;99.90;;;;;;5015944;28;1518;-89
2022/11/26 10:49:13;;;;;;;;;;;8.80;99.90;;;;;;5012903;28;1682;-88
2022/11/26 10:51:41;;;;;;;;;;;8.70;99.90;;;;;;5009269;28;1914;-88
2022/11/26 10:54:21;;;;;;;;;;;8.90;99.90;;;;;;5002278;28;962;-88
2022/11/26 10:56:52;;;;;;;;;;;8.60;99.90;;;;;;5016205;28;1659;-87
2022/11/26 10:59:22;;;;;;;;;;;8.60;99.90;;;;;;5019404;28;1572;-86
2022/11/26 11:01:50;;;;;;;;;;;8.60;99.90;;;;;;5030400;28;1066;-87
2022/11/26 11:04:27;;;;;;;;;;;8.90;99.90;;;;;;5015162;28;1701;-89
2022/11/26 11:06:54;;;;;;;;;;;8.50;99.90;;;;;;5014303;28;1110;-87
2022/11/26 11:09:24;;;;;;;;;;;8.10;99.90;;;;;;5006387;28;1773;-89
2022/11/26 11:12:07;;;;;;;;;;;8.20;99.90;;;;;;5003819;28;1947;-90
2022/11/26 11:14:36;;;;;;;;;;;8.20;99.90;;;;;;4998505;28;1591;-86
2022/11/26 11:17:19;;;;;;;;;;;8.40;99.90;;;;;;4998784;28;823;-88
2022/11/26 11:19:47;;;;;;;;;;;8.30;99.90;;;;;;5008203;28;1000;-87
2022/11/26 11:22:18;;;;;;;;;;;8.40;99.80;;;;;;5018627;28;1734;-87
2022/11/26 11:24:46;;;;;;;;;;;8.40;99.90;;;;;;5001642;28;1643;-86
2022/11/26 11:27:21;;;;;;;;;;;8.70;99.90;;;;;;5001996;28;1672;-87
2022/11/26 11:29:50;;;;;;;;;;;8.40;99.90;;;;;;5013118;28;1694;-88
2022/11/26 11:32:42;;;;;;;;;;;8.40;99.90;;;;;;5007144;28;1961;-88
2022/11/26 11:35:21;;;;;;;;;;;8.50;99.90;;;;;;4986857;28;1044;-87
2022/11/26 11:37:49;;;;;;;;;;;8.60;99.90;;;;;;5005806;28;1363;-89
2022/11/26 11:40:23;;;;;;;;;;;8.50;99.60;;;;;;5021229;28;1001;-86
2022/11/26 11:42:53;;;;;;;;;;;8.60;99.90;;;;;;5001855;28;1539;-87
2022/11/26 11:45:29;;;;;;;;;;;8.60;99.90;;;;;;5017356;28;1673;-88
2022/11/26 11:47:57;;;;;;;;;;;8.60;99.80;;;;;;5009682;28;1513;-87
2022/11/26 11:50:29;;;;;;;;;;;8.60;99.90;;;;;;5011813;28;1883;-87
2022/11/26 11:53:01;;;;;;;;;;;8.60;99.90;;;;;;5002139;28;1054;-88
2022/11/26 11:55:34;;;;;;;;;;;8.60;99.90;;;;;;5000563;28;1593;-86
2022/11/26 11:58:15;;;;;;;;;;;8.70;99.90;;;;;;5000845;28;1565;-86
2022/11/26 12:00:48;;;;;;;;;;;8.60;99.90;;;;;;5001745;28;1725;-89
2022/11/26 12:03:30;;;;;;;;;;;8.60;99.90;;;;;;5002185;28;1643;-86
2022/11/26 12:06:04;;;;;;;;;;;8.70;99.90;;;;;;5016109;28;1027;-89
2022/11/26 12:08:38;;;;;;;;;;;8.80;99.70;;;;;;5001546;28;1299;-87
2022/11/26 12:11:15;;;;;;;;;;;9.00;99.50;;;;;;5001178;28;1906;-87
2022/11/26 12:13:46;;;;;;;;;;;8.90;99.40;;;;;;5001031;28;1552;-88
2022/11/26 12:16:16;;;;;;;;;;;9.00;98.90;;;;;;5015386;28;1049;-87
2022/11/26 12:18:47;;;;;;;;;;;8.90;99.10;;;;;;5016376;28;1355;-88
2022/11/26 12:21:16;;;;;;;;;;;8.80;99.30;;;;;;5009934;28;1156;-89
2022/11/26 12:23:48;;;;;;;;;;;8.90;99.10;;;;;;5013775;28;1400;-89
2022/11/26 12:26:19;;;;;;;;;;;8.80;99.90;;;;;;5009721;28;1033;-89
2022/11/26 12:28:52;;;;;;;;;;;8.90;99.90;;;;;;5014669;28;1575;-87
2022/11/26 12:31:25;;;;;;;;;;;9.00;99.70;;;;;;5013636;28;1894;-89
2022/11/26 12:33:55;;;;;;;;;;;9.10;99.80;;;;;;5014408;28;1538;-88
2022/11/26 12:36:34;;;;;;;;;;;8.90;99.60;;;;;;5008498;28;1145;-88
2022/11/26 12:39:03;;;;;;;;;;;9.10;99.50;;;;;;5009862;28;1420;-87
2022/11/26 12:41:33;;;;;;;;;;;8.80;99.80;;;;;;5008594;28;1692;-88
2022/11/26 12:44:13;;;;;;;;;;;8.80;99.90;;;;;;5013067;28;1100;-88
2022/11/26 12:46:52;;;;;;;;;;;8.80;99.90;;;;;;5010939;28;1585;-86
2022/11/26 12:49:24;;;;;;;;;;;8.80;99.80;;;;;;5011516;28;1371;-87
2022/11/26 12:51:56;;;;;;;;;;;9.00;99.80;;;;;;5002423;28;1907;-88
2022/11/26 12:54:26;;;;;;;;;;;8.80;99.90;;;;;;5000705;28;983;-88
2022/11/26 12:56:58;;;;;;;;;;;8.80;99.80;;;;;;5004407;28;1117;-88
2022/11/26 12:59:27;;;;;;;;;;;8.80;99.90;;;;;;5006600;28;1360;-88
2022/11/26 13:01:57;;;;;;;;;;;8.80;99.80;;;;;;4999038;28;1009;-90
2022/11/26 13:04:27;;;;;;;;;;;8.80;99.70;;;;;;5002829;28;966;-88
2022/11/26 13:07:15;;;;;;;;;;;8.80;99.60;;;;;;5012996;28;1422;-88
2022/11/26 13:09:57;;;;;;;;;;;8.70;99.80;;;;;;5023039;28;1427;-86
2022/11/26 13:12:28;;;;;;;;;;;8.70;99.90;;;;;;5008697;28;2001;-89
2022/11/26 13:15:02;;;;;;;;;;;8.70;99.90;;;;;;5009882;28;1571;-88
2022/11/26 13:17:37;;;;;;;;;;;8.40;99.90;;;;;;5007816;28;1559;-88
2022/11/26 13:20:07;;;;;;;;;;;8.70;99.90;;;;;;5000591;28;1542;-87
2022/11/26 13:22:41;;;;;;;;;;;8.70;99.90;;;;;;5000262;28;1620;-88
2022/11/26 13:25:27;;;;;;;;;;;8.70;99.90;;;;;;5001070;28;1714;-87
2022/11/26 13:28:00;;;;;;;;;;;8.80;99.90;;;;;;4999353;28;1567;-87
2022/11/26 13:30:34;;;;;;;;;;;8.80;99.90;;;;;;5013440;28;1634;-89
2022/11/26 13:33:20;;;;;;;;;;;8.70;99.90;;;;;;5014743;28;1960;-88
2022/11/26 13:35:59;;;;;;;;;;;8.80;99.90;;;;;;5001918;28;1148;-89
2022/11/26 13:38:33;;;;;;;;;;;8.50;99.90;;;;;;5001202;28;1458;-90
2022/11/26 13:41:18;;;;;;;;;;;8.50;99.90;;;;;;5000665;28;1566;-89
2022/11/26 13:44:01;;;;;;;;;;;8.40;99.90;;;;;;5001340;28;1692;-89
2022/11/26 13:46:30;;;;;;;;;;;8.40;99.90;;;;;;5002314;28;1611;-87
2022/11/26 13:49:00;;;;;;;;;;;8.40;99.90;;;;;;5000384;28;1311;-88
2022/11/26 13:51:34;;;;;;;;;;;8.40;99.90;;;;;;5018031;28;2003;-89
2022/11/26 13:54:06;;;;;;;;;;;8.40;99.90;;;;;;5021504;28;1699;-89
2022/11/26 13:56:35;;;;;;;;;;;8.50;99.90;;;;;;5022198;28;1024;-89
2022/11/26 13:59:06;;;;;;;;;;;8.50;99.90;;;;;;5016661;28;1611;-90
2022/11/26 14:01:35;;;;;;;;;;;8.50;99.90;;;;;;5022653;28;1373;-88
2022/11/26 14:04:05;;;;;;;;;;;8.30;99.90;;;;;;5011990;28;974;-87
2022/11/26 14:06:35;;;;;;;;;;;8.50;99.90;;;;;;5010763;28;994;-88
2022/11/26 14:09:04;;;;;;;;;;;8.50;99.90;;;;;;5016170;28;1716;-89
2022/11/26 14:11:53;;;;;;;;;;;8.60;99.90;;;;;;5003355;28;1914;-88
2022/11/26 14:14:30;;;;;;;;;;;8.40;99.90;;;;;;5015875;28;1548;-87
2022/11/26 14:17:19;;;;;;;;;;;8.50;99.90;;;;;;5021306;28;990;-87
2022/11/26 14:20:05;;;;;;;;;;;8.60;99.90;;;;;;5021609;28;1006;-86
2022/11/26 14:22:35;;;;;;;;;;;8.60;99.90;;;;;;5020853;28;1423;-85
2022/11/26 14:25:05;;;;;;;;;;;8.60;99.90;;;;;;5014487;28;1608;-86
2022/11/26 14:27:34;;;;;;;;;;;8.60;99.90;;;;;;5006087;28;1335;-85
2022/11/26 14:30:13;;;;;;;;;;;8.60;99.90;;;;;;5020392;28;1606;-84
2022/11/26 14:32:44;;;;;;;;;;;8.60;99.90;;;;;;5012987;28;1979;-86
2022/11/26 14:35:17;;;;;;;;;;;8.70;99.90;;;;;;5013322;28;1532;-85
2022/11/26 14:37:52;;;;;;;;;;;8.80;99.90;;;;;;5013073;28;1500;-86
2022/11/26 14:40:21;;;;;;;;;;;8.90;99.90;;;;;;5013246;28;1510;-86
2022/11/26 14:42:49;;;;;;;;;;;8.60;99.90;;;;;;5017742;28;1102;-86
2022/11/26 14:45:18;;;;;;;;;;;8.60;99.90;;;;;;5012852;28;1187;-86
2022/11/26 14:47:47;;;;;;;;;;;8.60;99.90;;;;;;5015264;28;1532;-87
2022/11/26 14:50:17;;;;;;;;;;;8.70;99.90;;;;;;5010049;28;1360;-87
2022/11/26 14:52:50;;;;;;;;;;;8.70;99.90;;;;;;5014051;28;1984;-86
2022/11/26 14:55:22;;;;;;;;;;;8.40;99.90;;;;;;5012898;28;1530;-87
2022/11/26 14:57:52;;;;;;;;;;;8.60;99.90;;;;;;5009634;28;1543;-88
2022/11/26 15:00:22;;;;;;;;;;;8.40;99.90;;;;;;5018665;28;1483;-85
2022/11/26 15:02:49;;;;;;;;;;;8.40;99.90;;;;;;5012755;28;1030;-85
2022/11/26 15:05:18;;;;;;;;;;;8.50;99.90;;;;;;5016546;28;1080;-85
2022/11/26 15:07:47;;;;;;;;;;;8.40;99.90;;;;;;5013239;28;1593;-86